sensor_id;sensor_type;location;lat;lon;timestamp;P1;durP1;ratioP1;P2;durP2;ratioP2
14121;SDS011;7139;48.114;11.442;2023-03-23T00:00:47;4.00;;;3.60;;
14121;SDS011;7139;48.114;11.442;2023-03-23T00:03:15;4.60;;;3.20;;
14121;SDS011;7139;48.114;11.442;2023-03-23T00:05:43;3.90;;;2.90;;
14121;SDS011;7139;48.114;11.442;2023-03-23T00:08:15;4.60;;;3.00;;
14121;SDS011;7139;48.114;11.442;2023-03-23T00:10:42;3.63;;;2.93;;
14121;SDS011;7139;48.114;11.442;2023-03-23T00:13:09;3.27;;;2.80;;
14121;SDS011;7139;48.114;11.442;2023-03-23T00:15:38;3.50;;;2.60;;
14121;SDS011;7139;48.114;11.442;2023-03-23T00:18:06;4.00;;;2.80;;
14121;SDS011;7139;48.114;11.442;2023-03-23T00:20:34;3.50;;;3.20;;
14121;SDS011;7139;48.114;11.442;2023-03-23T00:23:05;4.90;;;3.10;;
14121;SDS011;7139;48.114;11.442;2023-03-23T00:25:32;2.93;;;2.70;;
14121;SDS011;7139;48.114;11.442;2023-03-23T00:27:59;5.90;;;2.77;;
14121;SDS011;7139;48.114;11.442;2023-03-23T00:30:27;3.13;;;2.80;;
14121;SDS011;7139;48.114;11.442;2023-03-23T00:32:54;3.27;;;2.70;;
14121;SDS011;7139;48.114;11.442;2023-03-23T00:35:22;3.27;;;2.87;;
14121;SDS011;7139;48.114;11.442;2023-03-23T00:37:51;4.63;;;2.80;;
14121;SDS011;7139;48.114;11.442;2023-03-23T00:40:18;3.00;;;2.70;;
14121;SDS011;7139;48.114;11.442;2023-03-23T00:42:44;3.20;;;2.90;;
14121;SDS011;7139;48.114;11.442;2023-03-23T00:45:13;4.87;;;2.70;;
14121;SDS011;7139;48.114;11.442;2023-03-23T00:47:40;2.70;;;2.50;;
14121;SDS011;7139;48.114;11.442;2023-03-23T00:50:11;3.50;;;2.90;;
14121;SDS011;7139;48.114;11.442;2023-03-23T00:52:39;3.10;;;2.80;;
14121;SDS011;7139;48.114;11.442;2023-03-23T00:55:07;3.33;;;2.90;;
14121;SDS011;7139;48.114;11.442;2023-03-23T00:57:34;3.00;;;2.80;;
14121;SDS011;7139;48.114;11.442;2023-03-23T01:00:01;3.10;;;2.80;;
14121;SDS011;7139;48.114;11.442;2023-03-23T01:02:30;3.10;;;2.63;;
14121;SDS011;7139;48.114;11.442;2023-03-23T01:04:57;3.40;;;3.03;;
14121;SDS011;7139;48.114;11.442;2023-03-23T01:07:23;2.80;;;2.60;;
14121;SDS011;7139;48.114;11.442;2023-03-23T01:09:53;3.23;;;2.90;;
14121;SDS011;7139;48.114;11.442;2023-03-23T01:12:21;3.17;;;2.87;;
14121;SDS011;7139;48.114;11.442;2023-03-23T01:14:49;3.17;;;2.70;;
14121;SDS011;7139;48.114;11.442;2023-03-23T01:17:16;3.67;;;2.60;;
14121;SDS011;7139;48.114;11.442;2023-03-23T01:19:43;3.67;;;2.60;;
14121;SDS011;7139;48.114;11.442;2023-03-23T01:22:10;3.80;;;2.70;;
14121;SDS011;7139;48.114;11.442;2023-03-23T01:24:37;2.77;;;2.57;;
14121;SDS011;7139;48.114;11.442;2023-03-23T01:27:03;3.10;;;2.80;;
14121;SDS011;7139;48.114;11.442;2023-03-23T01:29:33;2.73;;;2.53;;
14121;SDS011;7139;48.114;11.442;2023-03-23T01:32:00;2.83;;;2.53;;
14121;SDS011;7139;48.114;11.442;2023-03-23T01:34:27;3.60;;;2.80;;
14121;SDS011;7139;48.114;11.442;2023-03-23T01:36:53;3.10;;;2.80;;
14121;SDS011;7139;48.114;11.442;2023-03-23T01:39:20;2.93;;;2.53;;
14121;SDS011;7139;48.114;11.442;2023-03-23T01:41:47;3.20;;;2.50;;
14121;SDS011;7139;48.114;11.442;2023-03-23T01:47:20;4.00;;;2.90;;
14121;SDS011;7139;48.114;11.442;2023-03-23T01:49:51;3.43;;;2.90;;
14121;SDS011;7139;48.114;11.442;2023-03-23T01:52:19;3.50;;;2.90;;
14121;SDS011;7139;48.114;11.442;2023-03-23T01:54:50;4.07;;;3.00;;
14121;SDS011;7139;48.114;11.442;2023-03-23T01:57:19;3.30;;;2.80;;
14121;SDS011;7139;48.114;11.442;2023-03-23T01:59:49;3.10;;;2.80;;
14121;SDS011;7139;48.114;11.442;2023-03-23T02:02:20;3.13;;;2.80;;
14121;SDS011;7139;48.114;11.442;2023-03-23T02:04:48;3.73;;;2.67;;
14121;SDS011;7139;48.114;11.442;2023-03-23T02:07:17;3.33;;;2.67;;
14121;SDS011;7139;48.114;11.442;2023-03-23T02:09:46;3.03;;;2.50;;
14121;SDS011;7139;48.114;11.442;2023-03-23T02:12:13;3.20;;;2.90;;
14121;SDS011;7139;48.114;11.442;2023-03-23T02:14:40;3.13;;;2.80;;
14121;SDS011;7139;48.114;11.442;2023-03-23T02:17:07;3.33;;;2.60;;
14121;SDS011;7139;48.114;11.442;2023-03-23T02:19:53;3.13;;;2.53;;
14121;SDS011;7139;48.114;11.442;2023-03-23T02:22:43;2.80;;;2.60;;
14121;SDS011;7139;48.114;11.442;2023-03-23T02:25:33;3.50;;;2.90;;
14121;SDS011;7139;48.114;11.442;2023-03-23T02:31:30;4.43;;;2.83;;
14121;SDS011;7139;48.114;11.442;2023-03-23T02:34:11;3.20;;;2.67;;
14121;SDS011;7139;48.114;11.442;2023-03-23T02:36:44;3.80;;;2.80;;
14121;SDS011;7139;48.114;11.442;2023-03-23T02:39:13;3.50;;;2.80;;
14121;SDS011;7139;48.114;11.442;2023-03-23T02:41:45;4.80;;;2.80;;
14121;SDS011;7139;48.114;11.442;2023-03-23T02:44:16;3.70;;;2.40;;
14121;SDS011;7139;48.114;11.442;2023-03-23T02:46:44;3.40;;;3.10;;
14121;SDS011;7139;48.114;11.442;2023-03-23T02:49:14;2.87;;;2.67;;
14121;SDS011;7139;48.114;11.442;2023-03-23T02:51:43;2.67;;;2.47;;
14121;SDS011;7139;48.114;11.442;2023-03-23T02:54:12;2.77;;;2.57;;
14121;SDS011;7139;48.114;11.442;2023-03-23T02:56:41;2.73;;;2.43;;
14121;SDS011;7139;48.114;11.442;2023-03-23T02:59:10;3.27;;;2.73;;
14121;SDS011;7139;48.114;11.442;2023-03-23T03:01:48;3.00;;;2.70;;
14121;SDS011;7139;48.114;11.442;2023-03-23T03:04:22;4.47;;;2.90;;
14121;SDS011;7139;48.114;11.442;2023-03-23T03:06:54;2.83;;;2.60;;
14121;SDS011;7139;48.114;11.442;2023-03-23T03:09:50;4.13;;;2.80;;
14121;SDS011;7139;48.114;11.442;2023-03-23T03:12:21;3.23;;;2.60;;
14121;SDS011;7139;48.114;11.442;2023-03-23T03:14:57;3.60;;;2.57;;
14121;SDS011;7139;48.114;11.442;2023-03-23T03:17:27;3.23;;;2.47;;
14121;SDS011;7139;48.114;11.442;2023-03-23T03:19:58;2.80;;;2.50;;
14121;SDS011;7139;48.114;11.442;2023-03-23T03:22:29;3.00;;;2.37;;
14121;SDS011;7139;48.114;11.442;2023-03-23T03:24:56;5.10;;;2.47;;
14121;SDS011;7139;48.114;11.442;2023-03-23T03:27:25;4.23;;;2.57;;
14121;SDS011;7139;48.114;11.442;2023-03-23T03:29:54;3.83;;;2.47;;
14121;SDS011;7139;48.114;11.442;2023-03-23T03:32:25;2.90;;;2.53;;
14121;SDS011;7139;48.114;11.442;2023-03-23T03:35:02;4.03;;;2.77;;
14121;SDS011;7139;48.114;11.442;2023-03-23T03:37:32;3.10;;;2.27;;
14121;SDS011;7139;48.114;11.442;2023-03-23T03:40:03;3.90;;;2.77;;
14121;SDS011;7139;48.114;11.442;2023-03-23T03:42:35;4.10;;;2.60;;
14121;SDS011;7139;48.114;11.442;2023-03-23T03:45:03;2.53;;;2.27;;
14121;SDS011;7139;48.114;11.442;2023-03-23T03:47:32;3.13;;;2.50;;
14121;SDS011;7139;48.114;11.442;2023-03-23T03:49:59;3.23;;;2.70;;
14121;SDS011;7139;48.114;11.442;2023-03-23T03:52:27;2.60;;;2.40;;
14121;SDS011;7139;48.114;11.442;2023-03-23T03:54:53;3.50;;;2.10;;
14121;SDS011;7139;48.114;11.442;2023-03-23T03:57:21;4.03;;;2.30;;
14121;SDS011;7139;48.114;11.442;2023-03-23T03:59:47;2.50;;;2.30;;
14121;SDS011;7139;48.114;11.442;2023-03-23T04:02:14;2.30;;;2.10;;
14121;SDS011;7139;48.114;11.442;2023-03-23T04:04:44;2.60;;;2.00;;
14121;SDS011;7139;48.114;11.442;2023-03-23T04:07:11;3.27;;;2.27;;
14121;SDS011;7139;48.114;11.442;2023-03-23T04:09:40;2.83;;;2.23;;
14121;SDS011;7139;48.114;11.442;2023-03-23T04:12:06;3.20;;;2.67;;
14121;SDS011;7139;48.114;11.442;2023-03-23T04:14:33;3.77;;;2.20;;
14121;SDS011;7139;48.114;11.442;2023-03-23T04:17:00;2.50;;;2.20;;
14121;SDS011;7139;48.114;11.442;2023-03-23T04:19:27;2.47;;;2.23;;
14121;SDS011;7139;48.114;11.442;2023-03-23T04:21:57;3.37;;;2.23;;
14121;SDS011;7139;48.114;11.442;2023-03-23T04:24:24;3.30;;;2.23;;
14121;SDS011;7139;48.114;11.442;2023-03-23T04:26:54;2.33;;;2.13;;
14121;SDS011;7139;48.114;11.442;2023-03-23T04:29:21;2.30;;;2.10;;
14121;SDS011;7139;48.114;11.442;2023-03-23T04:31:48;3.83;;;2.43;;
14121;SDS011;7139;48.114;11.442;2023-03-23T04:34:15;2.93;;;2.40;;
14121;SDS011;7139;48.114;11.442;2023-03-23T04:36:42;3.13;;;2.40;;
14121;SDS011;7139;48.114;11.442;2023-03-23T04:39:11;2.53;;;2.20;;
14121;SDS011;7139;48.114;11.442;2023-03-23T04:41:38;2.80;;;2.20;;
14121;SDS011;7139;48.114;11.442;2023-03-23T04:44:07;3.67;;;2.67;;
14121;SDS011;7139;48.114;11.442;2023-03-23T04:46:34;2.77;;;2.47;;
14121;SDS011;7139;48.114;11.442;2023-03-23T04:49:01;2.53;;;2.33;;
14121;SDS011;7139;48.114;11.442;2023-03-23T04:51:28;2.77;;;2.43;;
14121;SDS011;7139;48.114;11.442;2023-03-23T04:53:56;3.33;;;2.30;;
14121;SDS011;7139;48.114;11.442;2023-03-23T04:56:22;3.63;;;2.40;;
14121;SDS011;7139;48.114;11.442;2023-03-23T04:58:49;2.80;;;2.20;;
14121;SDS011;7139;48.114;11.442;2023-03-23T05:01:17;2.50;;;2.30;;
14121;SDS011;7139;48.114;11.442;2023-03-23T05:03:44;3.27;;;2.47;;
14121;SDS011;7139;48.114;11.442;2023-03-23T05:06:11;2.70;;;2.50;;
14121;SDS011;7139;48.114;11.442;2023-03-23T05:08:38;2.47;;;2.27;;
14121;SDS011;7139;48.114;11.442;2023-03-23T05:11:05;2.80;;;2.50;;
14121;SDS011;7139;48.114;11.442;2023-03-23T05:13:33;2.60;;;2.40;;
14121;SDS011;7139;48.114;11.442;2023-03-23T05:16:02;3.33;;;2.30;;
14121;SDS011;7139;48.114;11.442;2023-03-23T05:18:31;2.80;;;2.50;;
14121;SDS011;7139;48.114;11.442;2023-03-23T05:20:59;2.43;;;2.23;;
14121;SDS011;7139;48.114;11.442;2023-03-23T05:23:26;2.53;;;2.33;;
14121;SDS011;7139;48.114;11.442;2023-03-23T05:25:56;2.50;;;2.30;;
14121;SDS011;7139;48.114;11.442;2023-03-23T05:28:25;2.40;;;2.20;;
14121;SDS011;7139;48.114;11.442;2023-03-23T05:30:53;2.60;;;2.33;;
14121;SDS011;7139;48.114;11.442;2023-03-23T05:33:21;2.40;;;2.20;;
14121;SDS011;7139;48.114;11.442;2023-03-23T05:35:49;2.77;;;2.37;;
14121;SDS011;7139;48.114;11.442;2023-03-23T05:38:16;2.53;;;2.33;;
14121;SDS011;7139;48.114;11.442;2023-03-23T05:40:43;2.40;;;2.20;;
14121;SDS011;7139;48.114;11.442;2023-03-23T05:43:10;2.93;;;2.63;;
14121;SDS011;7139;48.114;11.442;2023-03-23T05:45:37;4.23;;;2.77;;
14121;SDS011;7139;48.114;11.442;2023-03-23T05:48:04;3.77;;;2.60;;
14121;SDS011;7139;48.114;11.442;2023-03-23T05:50:31;3.37;;;2.70;;
14121;SDS011;7139;48.114;11.442;2023-03-23T05:52:59;8.70;;;3.07;;
14121;SDS011;7139;48.114;11.442;2023-03-23T05:55:26;7.70;;;2.80;;
14121;SDS011;7139;48.114;11.442;2023-03-23T05:57:53;5.97;;;2.77;;
14121;SDS011;7139;48.114;11.442;2023-03-23T06:00:20;7.37;;;2.60;;
14121;SDS011;7139;48.114;11.442;2023-03-23T06:02:48;4.63;;;2.50;;
14121;SDS011;7139;48.114;11.442;2023-03-23T06:05:15;7.47;;;3.20;;
14121;SDS011;7139;48.114;11.442;2023-03-23T06:07:42;7.30;;;2.70;;
14121;SDS011;7139;48.114;11.442;2023-03-23T06:10:10;11.00;;;3.13;;
14121;SDS011;7139;48.114;11.442;2023-03-23T06:12:38;5.83;;;2.70;;
14121;SDS011;7139;48.114;11.442;2023-03-23T06:15:06;6.00;;;2.37;;
14121;SDS011;7139;48.114;11.442;2023-03-23T06:17:35;4.07;;;2.77;;
14121;SDS011;7139;48.114;11.442;2023-03-23T06:20:02;5.53;;;2.50;;
14121;SDS011;7139;48.114;11.442;2023-03-23T06:22:34;4.77;;;2.40;;
14121;SDS011;7139;48.114;11.442;2023-03-23T06:25:01;6.50;;;3.03;;
14121;SDS011;7139;48.114;11.442;2023-03-23T06:27:29;6.37;;;2.50;;
14121;SDS011;7139;48.114;11.442;2023-03-23T06:29:56;4.80;;;2.43;;
14121;SDS011;7139;48.114;11.442;2023-03-23T06:32:22;3.90;;;2.23;;
14121;SDS011;7139;48.114;11.442;2023-03-23T06:34:50;4.10;;;2.57;;
14121;SDS011;7139;48.114;11.442;2023-03-23T06:37:18;11.33;;;3.43;;
14121;SDS011;7139;48.114;11.442;2023-03-23T06:39:44;15.17;;;3.97;;
14121;SDS011;7139;48.114;11.442;2023-03-23T06:42:11;24.97;;;5.40;;
14121;SDS011;7139;48.114;11.442;2023-03-23T06:44:39;27.70;;;4.87;;
14121;SDS011;7139;48.114;11.442;2023-03-23T06:47:06;28.17;;;4.93;;
14121;SDS011;7139;48.114;11.442;2023-03-23T06:49:33;28.27;;;4.97;;
14121;SDS011;7139;48.114;11.442;2023-03-23T06:52:00;28.27;;;4.47;;
14121;SDS011;7139;48.114;11.442;2023-03-23T06:54:28;20.20;;;3.83;;
14121;SDS011;7139;48.114;11.442;2023-03-23T06:56:55;23.20;;;4.67;;
14121;SDS011;7139;48.114;11.442;2023-03-23T06:59:22;14.83;;;4.40;;
14121;SDS011;7139;48.114;11.442;2023-03-23T07:01:50;6.57;;;3.13;;
14121;SDS011;7139;48.114;11.442;2023-03-23T07:04:17;10.80;;;3.50;;
14121;SDS011;7139;48.114;11.442;2023-03-23T07:06:43;8.63;;;3.03;;
14121;SDS011;7139;48.114;11.442;2023-03-23T07:09:10;6.90;;;2.63;;
14121;SDS011;7139;48.114;11.442;2023-03-23T07:11:37;3.80;;;2.70;;
14121;SDS011;7139;48.114;11.442;2023-03-23T07:14:03;9.00;;;2.93;;
14121;SDS011;7139;48.114;11.442;2023-03-23T07:16:30;5.97;;;2.50;;
14121;SDS011;7139;48.114;11.442;2023-03-23T07:18:59;3.93;;;2.50;;
14121;SDS011;7139;48.114;11.442;2023-03-23T07:21:26;8.93;;;3.20;;
14121;SDS011;7139;48.114;11.442;2023-03-23T07:23:53;6.90;;;3.00;;
14121;SDS011;7139;48.114;11.442;2023-03-23T07:26:19;8.33;;;3.10;;
14121;SDS011;7139;48.114;11.442;2023-03-23T07:28:47;10.33;;;2.93;;
14121;SDS011;7139;48.114;11.442;2023-03-23T07:31:14;9.00;;;3.53;;
14121;SDS011;7139;48.114;11.442;2023-03-23T07:33:41;7.53;;;3.03;;
14121;SDS011;7139;48.114;11.442;2023-03-23T07:36:10;6.13;;;3.00;;
14121;SDS011;7139;48.114;11.442;2023-03-23T07:38:37;9.43;;;3.27;;
14121;SDS011;7139;48.114;11.442;2023-03-23T07:41:04;13.73;;;3.80;;
14121;SDS011;7139;48.114;11.442;2023-03-23T07:43:32;2.90;;;2.60;;
14121;SDS011;7139;48.114;11.442;2023-03-23T07:45:59;6.40;;;2.77;;
14121;SDS011;7139;48.114;11.442;2023-03-23T07:48:26;4.33;;;2.53;;
14121;SDS011;7139;48.114;11.442;2023-03-23T07:50:52;3.97;;;2.40;;
14121;SDS011;7139;48.114;11.442;2023-03-23T07:53:21;3.63;;;2.00;;
14121;SDS011;7139;48.114;11.442;2023-03-23T07:55:49;5.80;;;2.50;;
14121;SDS011;7139;48.114;11.442;2023-03-23T07:58:16;5.53;;;2.70;;
14121;SDS011;7139;48.114;11.442;2023-03-23T08:00:44;5.77;;;2.90;;
14121;SDS011;7139;48.114;11.442;2023-03-23T08:03:13;5.13;;;2.90;;
14121;SDS011;7139;48.114;11.442;2023-03-23T08:05:40;9.73;;;2.47;;
14121;SDS011;7139;48.114;11.442;2023-03-23T08:08:07;2.97;;;2.30;;
14121;SDS011;7139;48.114;11.442;2023-03-23T08:10:36;3.50;;;2.10;;
14121;SDS011;7139;48.114;11.442;2023-03-23T08:13:03;4.00;;;2.40;;
14121;SDS011;7139;48.114;11.442;2023-03-23T08:15:31;4.53;;;2.67;;
14121;SDS011;7139;48.114;11.442;2023-03-23T08:18:02;4.53;;;2.40;;
14121;SDS011;7139;48.114;11.442;2023-03-23T08:20:30;5.63;;;2.50;;
14121;SDS011;7139;48.114;11.442;2023-03-23T08:22:58;3.10;;;2.17;;
14121;SDS011;7139;48.114;11.442;2023-03-23T08:25:25;5.13;;;2.30;;
14121;SDS011;7139;48.114;11.442;2023-03-23T08:27:53;4.70;;;2.33;;
14121;SDS011;7139;48.114;11.442;2023-03-23T08:30:20;4.43;;;2.27;;
14121;SDS011;7139;48.114;11.442;2023-03-23T08:32:49;5.17;;;2.70;;
14121;SDS011;7139;48.114;11.442;2023-03-23T08:35:17;3.13;;;2.23;;
14121;SDS011;7139;48.114;11.442;2023-03-23T08:37:45;5.60;;;2.40;;
14121;SDS011;7139;48.114;11.442;2023-03-23T08:40:16;3.00;;;1.80;;
14121;SDS011;7139;48.114;11.442;2023-03-23T08:42:44;3.30;;;2.03;;
14121;SDS011;7139;48.114;11.442;2023-03-23T08:45:14;2.40;;;2.17;;
14121;SDS011;7139;48.114;11.442;2023-03-23T08:47:43;2.07;;;1.87;;
14121;SDS011;7139;48.114;11.442;2023-03-23T08:50:12;3.00;;;2.10;;
14121;SDS011;7139;48.114;11.442;2023-03-23T08:52:41;2.50;;;2.10;;
14121;SDS011;7139;48.114;11.442;2023-03-23T08:55:08;3.43;;;2.60;;
14121;SDS011;7139;48.114;11.442;2023-03-23T08:57:36;3.93;;;2.67;;
14121;SDS011;7139;48.114;11.442;2023-03-23T09:00:03;3.27;;;2.57;;
14121;SDS011;7139;48.114;11.442;2023-03-23T09:02:40;2.80;;;2.50;;
14121;SDS011;7139;48.114;11.442;2023-03-23T09:05:07;4.30;;;2.50;;
14121;SDS011;7139;48.114;11.442;2023-03-23T09:07:35;2.43;;;2.23;;
14121;SDS011;7139;48.114;11.442;2023-03-23T09:10:02;3.70;;;2.40;;
14121;SDS011;7139;48.114;11.442;2023-03-23T09:12:29;3.10;;;2.53;;
14121;SDS011;7139;48.114;11.442;2023-03-23T09:14:56;3.10;;;2.80;;
14121;SDS011;7139;48.114;11.442;2023-03-23T09:17:23;3.10;;;2.80;;
14121;SDS011;7139;48.114;11.442;2023-03-23T09:19:51;4.13;;;3.23;;
14121;SDS011;7139;48.114;11.442;2023-03-23T09:22:18;4.07;;;3.27;;
14121;SDS011;7139;48.114;11.442;2023-03-23T09:24:48;5.07;;;2.87;;
14121;SDS011;7139;48.114;11.442;2023-03-23T09:27:16;3.80;;;3.03;;
14121;SDS011;7139;48.114;11.442;2023-03-23T09:29:44;4.00;;;3.00;;
14121;SDS011;7139;48.114;11.442;2023-03-23T09:32:13;4.83;;;3.07;;
14121;SDS011;7139;48.114;11.442;2023-03-23T09:34:40;5.13;;;2.83;;
14121;SDS011;7139;48.114;11.442;2023-03-23T09:37:08;3.90;;;3.27;;
14121;SDS011;7139;48.114;11.442;2023-03-23T09:39:38;4.43;;;3.03;;
14121;SDS011;7139;48.114;11.442;2023-03-23T09:42:11;3.67;;;3.03;;
14121;SDS011;7139;48.114;11.442;2023-03-23T09:44:48;4.10;;;3.13;;
14121;SDS011;7139;48.114;11.442;2023-03-23T09:47:25;4.20;;;3.43;;
14121;SDS011;7139;48.114;11.442;2023-03-23T09:50:01;7.17;;;3.70;;
14121;SDS011;7139;48.114;11.442;2023-03-23T09:52:34;3.90;;;3.50;;
14121;SDS011;7139;48.114;11.442;2023-03-23T09:55:07;4.43;;;3.30;;
14121;SDS011;7139;48.114;11.442;2023-03-23T09:57:38;3.73;;;3.43;;
14121;SDS011;7139;48.114;11.442;2023-03-23T10:00:11;3.93;;;3.60;;
14121;SDS011;7139;48.114;11.442;2023-03-23T10:02:43;4.40;;;3.20;;
14121;SDS011;7139;48.114;11.442;2023-03-23T10:05:20;4.13;;;3.37;;
14121;SDS011;7139;48.114;11.442;2023-03-23T10:07:54;3.47;;;3.13;;
14121;SDS011;7139;48.114;11.442;2023-03-23T10:10:21;3.33;;;3.03;;
14121;SDS011;7139;48.114;11.442;2023-03-23T10:12:58;3.60;;;2.90;;
14121;SDS011;7139;48.114;11.442;2023-03-23T10:15:29;3.10;;;2.80;;
14121;SDS011;7139;48.114;11.442;2023-03-23T10:18:00;3.37;;;3.07;;
14121;SDS011;7139;48.114;11.442;2023-03-23T10:20:33;3.90;;;2.70;;
14121;SDS011;7139;48.114;11.442;2023-03-23T10:23:12;2.97;;;2.60;;
14121;SDS011;7139;48.114;11.442;2023-03-23T10:25:41;3.47;;;2.53;;
14121;SDS011;7139;48.114;11.442;2023-03-23T10:28:13;3.73;;;2.53;;
14121;SDS011;7139;48.114;11.442;2023-03-23T10:30:45;3.00;;;2.53;;
14121;SDS011;7139;48.114;11.442;2023-03-23T10:33:15;2.70;;;2.50;;
14121;SDS011;7139;48.114;11.442;2023-03-23T10:35:47;2.93;;;2.40;;
14121;SDS011;7139;48.114;11.442;2023-03-23T10:38:22;2.50;;;2.30;;
14121;SDS011;7139;48.114;11.442;2023-03-23T10:40:53;3.07;;;2.70;;
14121;SDS011;7139;48.114;11.442;2023-03-23T10:43:21;3.00;;;2.70;;
14121;SDS011;7139;48.114;11.442;2023-03-23T10:45:50;2.90;;;2.60;;
14121;SDS011;7139;48.114;11.442;2023-03-23T10:48:22;4.43;;;2.90;;
14121;SDS011;7139;48.114;11.442;2023-03-23T10:50:54;4.77;;;2.77;;
14121;SDS011;7139;48.114;11.442;2023-03-23T10:53:25;3.60;;;3.13;;
14121;SDS011;7139;48.114;11.442;2023-03-23T10:55:57;4.30;;;3.00;;
14121;SDS011;7139;48.114;11.442;2023-03-23T10:58:25;5.77;;;2.63;;
14121;SDS011;7139;48.114;11.442;2023-03-23T11:00:55;3.40;;;3.10;;
14121;SDS011;7139;48.114;11.442;2023-03-23T11:03:24;3.50;;;2.97;;
14121;SDS011;7139;48.114;11.442;2023-03-23T11:05:57;2.87;;;2.60;;
14121;SDS011;7139;48.114;11.442;2023-03-23T11:08:30;3.20;;;2.90;;
14121;SDS011;7139;48.114;11.442;2023-03-23T11:11:09;3.20;;;2.90;;
14121;SDS011;7139;48.114;11.442;2023-03-23T11:13:39;4.43;;;3.30;;
14121;SDS011;7139;48.114;11.442;2023-03-23T11:16:09;3.80;;;3.03;;
14121;SDS011;7139;48.114;11.442;2023-03-23T11:18:37;4.10;;;3.07;;
14121;SDS011;7139;48.114;11.442;2023-03-23T11:21:05;3.30;;;2.90;;
14121;SDS011;7139;48.114;11.442;2023-03-23T11:23:37;4.67;;;3.07;;
14121;SDS011;7139;48.114;11.442;2023-03-23T11:26:09;3.83;;;3.17;;
14121;SDS011;7139;48.114;11.442;2023-03-23T11:28:42;5.67;;;3.10;;
14121;SDS011;7139;48.114;11.442;2023-03-23T11:31:11;4.40;;;3.00;;
14121;SDS011;7139;48.114;11.442;2023-03-23T11:33:40;3.97;;;2.90;;
14121;SDS011;7139;48.114;11.442;2023-03-23T11:36:15;4.23;;;3.10;;
14121;SDS011;7139;48.114;11.442;2023-03-23T11:38:43;3.97;;;3.17;;
14121;SDS011;7139;48.114;11.442;2023-03-23T11:41:11;4.37;;;3.30;;
14121;SDS011;7139;48.114;11.442;2023-03-23T11:43:39;3.30;;;3.00;;
14121;SDS011;7139;48.114;11.442;2023-03-23T11:46:11;3.03;;;2.73;;
14121;SDS011;7139;48.114;11.442;2023-03-23T11:48:45;4.27;;;3.43;;
14121;SDS011;7139;48.114;11.442;2023-03-23T11:51:19;3.13;;;2.80;;
14121;SDS011;7139;48.114;11.442;2023-03-23T11:53:53;2.70;;;2.50;;
14121;SDS011;7139;48.114;11.442;2023-03-23T11:56:24;4.10;;;3.40;;
14121;SDS011;7139;48.114;11.442;2023-03-23T11:58:53;4.37;;;2.90;;
14121;SDS011;7139;48.114;11.442;2023-03-23T12:01:24;4.87;;;3.07;;
14121;SDS011;7139;48.114;11.442;2023-03-23T12:04:20;3.87;;;3.03;;
14121;SDS011;7139;48.114;11.442;2023-03-23T12:07:09;3.40;;;3.07;;
14121;SDS011;7139;48.114;11.442;2023-03-23T12:09:47;4.53;;;3.10;;
14121;SDS011;7139;48.114;11.442;2023-03-23T12:12:23;4.20;;;3.13;;
14121;SDS011;7139;48.114;11.442;2023-03-23T12:14:57;3.43;;;2.67;;
14121;SDS011;7139;48.114;11.442;2023-03-23T12:17:31;4.67;;;3.10;;
14121;SDS011;7139;48.114;11.442;2023-03-23T12:20:10;3.37;;;3.07;;
14121;SDS011;7139;48.114;11.442;2023-03-23T12:25:58;3.57;;;3.23;;
14121;SDS011;7139;48.114;11.442;2023-03-23T12:28:57;3.83;;;2.97;;
14121;SDS011;7139;48.114;11.442;2023-03-23T12:31:33;3.70;;;3.10;;
14121;SDS011;7139;48.114;11.442;2023-03-23T12:34:06;3.53;;;3.00;;
14121;SDS011;7139;48.114;11.442;2023-03-23T12:36:47;6.27;;;3.93;;
14121;SDS011;7139;48.114;11.442;2023-03-23T12:39:37;6.13;;;5.17;;
14121;SDS011;7139;48.114;11.442;2023-03-23T12:42:19;4.33;;;3.93;;
14121;SDS011;7139;48.114;11.442;2023-03-23T12:44:58;3.23;;;2.83;;
14121;SDS011;7139;48.114;11.442;2023-03-23T12:47:32;3.73;;;2.53;;
14121;SDS011;7139;48.114;11.442;2023-03-23T12:50:05;2.93;;;2.20;;
14121;SDS011;7139;48.114;11.442;2023-03-23T12:52:39;3.20;;;2.50;;
14121;SDS011;7139;48.114;11.442;2023-03-23T12:55:14;3.27;;;2.47;;
14121;SDS011;7139;48.114;11.442;2023-03-23T12:57:48;4.27;;;2.30;;
14121;SDS011;7139;48.114;11.442;2023-03-23T13:00:20;2.40;;;1.93;;
14121;SDS011;7139;48.114;11.442;2023-03-23T13:02:51;3.17;;;2.07;;
14121;SDS011;7139;48.114;11.442;2023-03-23T13:05:33;2.90;;;2.13;;
14121;SDS011;7139;48.114;11.442;2023-03-23T13:08:08;2.67;;;1.87;;
14121;SDS011;7139;48.114;11.442;2023-03-23T13:10:42;2.10;;;1.90;;
14121;SDS011;7139;48.114;11.442;2023-03-23T13:13:15;2.53;;;1.93;;
14121;SDS011;7139;48.114;11.442;2023-03-23T13:15:47;2.07;;;1.87;;
14121;SDS011;7139;48.114;11.442;2023-03-23T13:18:23;1.90;;;1.63;;
14121;SDS011;7139;48.114;11.442;2023-03-23T13:21:02;2.03;;;1.83;;
14121;SDS011;7139;48.114;11.442;2023-03-23T13:23:40;1.70;;;1.60;;
14121;SDS011;7139;48.114;11.442;2023-03-23T13:26:09;2.77;;;1.87;;
14121;SDS011;7139;48.114;11.442;2023-03-23T13:28:50;2.10;;;1.90;;
14121;SDS011;7139;48.114;11.442;2023-03-23T13:31:22;3.47;;;1.87;;
14121;SDS011;7139;48.114;11.442;2023-03-23T13:33:51;2.57;;;1.70;;
14121;SDS011;7139;48.114;11.442;2023-03-23T13:36:26;2.23;;;2.00;;
14121;SDS011;7139;48.114;11.442;2023-03-23T13:38:55;3.10;;;1.80;;
14121;SDS011;7139;48.114;11.442;2023-03-23T13:41:24;3.03;;;1.87;;
14121;SDS011;7139;48.114;11.442;2023-03-23T13:43:54;4.23;;;1.73;;
14121;SDS011;7139;48.114;11.442;2023-03-23T13:46:40;2.97;;;2.27;;
14121;SDS011;7139;48.114;11.442;2023-03-23T13:49:18;2.27;;;2.07;;
14121;SDS011;7139;48.114;11.442;2023-03-23T13:51:51;2.27;;;1.90;;
14121;SDS011;7139;48.114;11.442;2023-03-23T13:54:29;4.00;;;2.23;;
14121;SDS011;7139;48.114;11.442;2023-03-23T13:56:59;2.80;;;1.90;;
14121;SDS011;7139;48.114;11.442;2023-03-23T13:59:30;2.30;;;2.10;;
14121;SDS011;7139;48.114;11.442;2023-03-23T14:04:56;2.80;;;2.00;;
14121;SDS011;7139;48.114;11.442;2023-03-23T14:10:18;4.60;;;2.17;;
14121;SDS011;7139;48.114;11.442;2023-03-23T14:12:45;3.47;;;2.10;;
14121;SDS011;7139;48.114;11.442;2023-03-23T14:15:14;2.30;;;1.90;;
14121;SDS011;7139;48.114;11.442;2023-03-23T14:17:42;2.40;;;2.20;;
14121;SDS011;7139;48.114;11.442;2023-03-23T14:20:15;4.07;;;2.00;;
14121;SDS011;7139;48.114;11.442;2023-03-23T14:22:52;3.60;;;1.70;;
14121;SDS011;7139;48.114;11.442;2023-03-23T14:25:20;3.00;;;1.83;;
14121;SDS011;7139;48.114;11.442;2023-03-23T14:27:50;3.43;;;1.80;;
14121;SDS011;7139;48.114;11.442;2023-03-23T14:30:20;2.10;;;1.90;;
14121;SDS011;7139;48.114;11.442;2023-03-23T14:32:48;2.43;;;2.07;;
14121;SDS011;7139;48.114;11.442;2023-03-23T14:35:17;3.87;;;2.10;;
14121;SDS011;7139;48.114;11.442;2023-03-23T14:37:49;3.93;;;1.90;;
14121;SDS011;7139;48.114;11.442;2023-03-23T14:40:16;3.20;;;2.10;;
14121;SDS011;7139;48.114;11.442;2023-03-23T14:42:44;4.47;;;2.30;;
14121;SDS011;7139;48.114;11.442;2023-03-23T14:45:12;3.10;;;2.03;;
14121;SDS011;7139;48.114;11.442;2023-03-23T14:47:43;3.50;;;2.03;;
14121;SDS011;7139;48.114;11.442;2023-03-23T14:50:22;4.93;;;2.10;;
14121;SDS011;7139;48.114;11.442;2023-03-23T14:52:55;2.90;;;1.93;;
14121;SDS011;7139;48.114;11.442;2023-03-23T14:55:24;1.93;;;1.83;;
14121;SDS011;7139;48.114;11.442;2023-03-23T14:57:53;2.10;;;1.90;;
14121;SDS011;7139;48.114;11.442;2023-03-23T15:00:21;3.30;;;1.97;;
14121;SDS011;7139;48.114;11.442;2023-03-23T15:02:51;2.30;;;1.80;;
14121;SDS011;7139;48.114;11.442;2023-03-23T15:05:22;2.87;;;2.07;;
14121;SDS011;7139;48.114;11.442;2023-03-23T15:07:53;2.30;;;2.10;;
14121;SDS011;7139;48.114;11.442;2023-03-23T15:10:22;3.77;;;2.20;;
14121;SDS011;7139;48.114;11.442;2023-03-23T15:12:50;2.83;;;2.00;;
14121;SDS011;7139;48.114;11.442;2023-03-23T15:15:24;2.53;;;1.93;;
14121;SDS011;7139;48.114;11.442;2023-03-23T15:17:54;3.40;;;1.93;;
14121;SDS011;7139;48.114;11.442;2023-03-23T15:20:23;3.90;;;2.13;;